Time;durP1;ratioP1;P1;durP2;ratioP2;P2;SDS_P1;SDS_P2;PMS_P1;PMS_P2;Temp;Humidity;BMP_temperature;BMP_pressure;BME280_temperature;BME280_humidity;BME280_pressure;Samples;Min_cycle;Max_cycle;Signal;HPM_P1;HPM_P2
2023/07/23 00:01:15;;;;;;;;;;;23.20;68.50;;;22.64;62.28;96222.81;4975779;28;19921;-83
2023/07/23 00:03:42;;;;;;;;;;;23.30;68.40;;;22.64;62.08;96236.78;4976940;28;19922;-82
2023/07/23 00:06:10;;;;;;;;;;;23.20;68.10;;;22.61;62.54;96236.63;4994149;28;19922;-82
2023/07/23 00:08:38;;;;;;;;;;;23.20;68.10;;;22.56;62.46;96232.09;4976605;28;19922;-82
2023/07/23 00:11:07;;;;;;;;;;;23.20;68.10;;;22.55;62.29;96229.66;4960127;28;19926;-82
2023/07/23 00:13:35;;;;;;;;;;;23.20;68.30;;;22.56;62.67;96237.69;4976694;28;19928;-82
2023/07/23 00:16:03;;;;;;;;;;;23.10;68.50;;;22.55;62.45;96233.25;4994060;28;19928;-83
2023/07/23 00:18:31;;;;;;;;;;;23.10;68.50;;;22.55;62.48;96241.63;4960665;28;19922;-82
2023/07/23 00:20:59;;;;;;;;;;;23.10;68.60;;;22.55;62.31;96233.25;4976246;28;19922;-82
2023/07/23 00:23:27;;;;;;;;;;;23.20;68.60;;;22.55;62.45;96243.63;4976724;28;19922;-82
2023/07/23 00:25:55;;;;;;;;;;;23.10;68.50;;;22.54;62.70;96248.38;4976411;28;19928;-83
2023/07/23 00:28:24;;;;;;;;;;;23.20;68.60;;;22.53;62.49;96249.53;4976491;28;19922;-83
2023/07/23 00:30:52;;;;;;;;;;;23.10;68.70;;;22.53;62.78;96243.94;4993202;28;19926;-83
2023/07/23 00:33:23;;;;;;;;;;;23.10;68.60;;;22.53;62.41;96238.38;4976320;28;19921;-83
2023/07/23 00:35:51;;;;;;;;;;;23.10;68.70;;;22.53;63.03;96238.38;4976307;28;20251;-83
2023/07/23 00:38:20;;;;;;;;;;;23.10;68.80;;;22.53;62.57;96235.56;4976556;28;20249;-83
2023/07/23 00:40:49;;;;;;;;;;;23.10;68.80;;;22.52;62.62;96226.41;4975918;28;19929;-83
2023/07/23 00:43:16;;;;;;;;;;;23.10;68.80;;;22.53;62.94;96221.63;4976464;28;20213;-83
2023/07/23 00:45:46;;;;;;;;;;;23.10;68.90;;;22.55;63.09;96221.31;4960197;28;19928;-83
2023/07/23 00:48:14;;;;;;;;;;;23.10;68.90;;;22.55;63.15;96213.72;4960367;28;19921;-83
2023/07/23 00:50:41;;;;;;;;;;;23.10;69.20;;;22.57;63.23;96205.03;4975548;28;19921;-83
2023/07/23 00:53:09;;;;;;;;;;;23.10;69.40;;;22.57;62.77;96194.66;4960118;28;19922;-82
2023/07/23 00:55:37;;;;;;;;;;;23.10;69.10;;;22.59;63.25;96192.34;4975878;28;19928;-83
2023/07/23 00:58:05;;;;;;;;;;;23.20;69.20;;;22.59;62.77;96183.97;4960084;28;19928;-83
2023/07/23 01:00:33;;;;;;;;;;;23.20;69.10;;;22.60;63.07;96187.56;4974203;28;19922;-83
2023/07/23 01:03:03;;;;;;;;;;;23.20;69.10;;;22.61;63.14;96187.25;4959974;28;19929;-82
2023/07/23 01:05:31;;;;;;;;;;;23.20;69.10;;;22.60;62.60;96185.59;4992029;28;19936;-83
2023/07/23 01:07:58;;;;;;;;;;;23.20;69.00;;;22.61;62.87;96190.03;4976077;28;19921;-83
2023/07/23 01:10:26;;;;;;;;;;;23.20;69.00;;;22.60;62.72;96185.59;4975136;28;19922;-83
2023/07/23 01:12:54;;;;;;;;;;;23.20;69.00;;;22.60;62.72;96182.81;4975968;28;19922;-82
2023/07/23 01:15:22;;;;;;;;;;;23.20;68.90;;;22.60;62.75;96173.63;4975789;28;19928;-83
2023/07/23 01:17:50;;;;;;;;;;;23.20;68.90;;;22.60;62.71;96173.63;4992017;28;19921;-83
2023/07/23 01:20:20;;;;;;;;;;;23.20;68.90;;;22.57;63.07;96183.50;4975060;28;19921;-83
2023/07/23 01:22:49;;;;;;;;;;;23.20;69.00;;;22.57;62.81;96182.72;4975682;28;19928;-82
2023/07/23 01:25:17;;;;;;;;;;;23.20;69.00;;;22.56;62.74;96173.50;4959496;28;19923;-83
2023/07/23 01:27:45;;;;;;;;;;;23.20;68.90;;;22.56;62.95;96170.72;4975769;28;19937;-83
2023/07/23 01:30:13;;;;;;;;;;;23.20;69.00;;;22.55;63.17;96168.28;4958989;28;19922;-83
2023/07/23 01:32:41;;;;;;;;;;;23.10;68.90;;;22.52;63.04;96170.63;4992870;28;20239;-83
2023/07/23 01:35:12;;;;;;;;;;;23.10;69.00;;;22.52;62.89;96176.19;4959334;28;19922;-83
2023/07/23 01:37:39;;;;;;;;;;;23.20;69.20;;;22.53;63.42;96180.63;4975626;28;19922;-83
2023/07/23 01:40:09;;;;;;;;;;;23.10;69.40;;;22.53;63.11;96188.16;4974811;28;19922;-83
2023/07/23 01:42:37;;;;;;;;;;;23.10;69.40;;;22.54;63.59;96189.78;4991806;28;20048;-83
2023/07/23 01:45:06;;;;;;;;;;;23.10;69.50;;;22.54;63.11;96192.56;4959177;28;19928;-83
2023/07/23 01:47:34;;;;;;;;;;;23.10;69.50;;;22.53;63.49;96194.56;4992752;28;19922;-83
2023/07/23 01:50:02;;;;;;;;;;;23.10;69.40;;;22.53;63.37;96196.53;4974819;28;19930;-82
2023/07/23 01:52:31;;;;;;;;;;;23.10;69.40;;;22.52;63.16;96201.31;4975462;28;20213;-83
2023/07/23 01:54:59;;;;;;;;;;;23.10;69.40;;;22.53;63.10;96202.09;4975384;28;19921;-83
2023/07/23 01:57:28;;;;;;;;;;;23.10;69.50;;;22.53;63.41;96204.88;4975416;28;20136;-83
2023/07/23 01:59:56;;;;;;;;;;;23.10;69.50;;;22.53;63.09;96210.47;4991821;28;19922;-83
2023/07/23 02:02:24;;;;;;;;;;;23.10;69.60;;;22.53;63.27;96213.25;4959201;28;19936;-82
2023/07/23 02:04:52;;;;;;;;;;;23.10;69.60;;;22.51;63.30;96212.81;4958981;28;19922;-82
2023/07/23 02:07:20;;;;;;;;;;;23.10;69.50;;;22.50;63.26;96217.56;4958954;28;19921;-83
2023/07/23 02:09:50;;;;;;;;;;;23.10;69.60;;;22.49;63.25;96215.13;4974584;28;20023;-83
2023/07/23 02:12:18;;;;;;;;;;;23.10;70.50;;;22.47;63.74;96201.53;4974505;28;19922;-83
2023/07/23 02:14:47;;;;;;;;;;;23.10;69.80;;;22.47;63.54;96211.88;4992255;28;19922;-83
2023/07/23 02:17:15;;;;;;;;;;;23.10;69.90;;;22.47;63.52;96217.47;4975056;28;20231;-83
2023/07/23 02:19:44;;;;;;;;;;;23.10;69.90;;;22.45;63.52;96220.59;4974387;28;19922;-83
2023/07/23 02:22:12;;;;;;;;;;;23.10;69.90;;;22.45;63.37;96214.19;4974926;28;20120;-83
2023/07/23 02:24:40;;;;;;;;;;;23.00;69.70;;;22.40;63.59;96212.44;4974973;28;19928;-83
2023/07/23 02:27:08;;;;;;;;;;;23.00;69.70;;;22.36;64.06;96220.69;4974818;28;19922;-83
2023/07/23 02:29:36;;;;;;;;;;;23.00;70.10;;;22.36;63.95;96217.91;4958149;28;19922;-83
2023/07/23 02:32:10;;;;;;;;;;;22.90;70.30;;;22.36;64.02;96217.91;4957630;28;20466;-83
2023/07/23 02:34:38;;;;;;;;;;;22.90;70.40;;;22.37;64.18;96219.53;4974684;28;20121;-83
2023/07/23 02:37:07;;;;;;;;;;;23.00;70.50;;;22.40;64.06;96233.94;4975052;28;19922;-83
2023/07/23 02:39:34;;;;;;;;;;;23.00;70.40;;;22.41;64.05;96239.19;4974905;28;19976;-82
2023/07/23 02:42:02;;;;;;;;;;;23.00;70.40;;;22.43;64.43;96250.00;4974378;28;19922;-83
2023/07/23 02:44:30;;;;;;;;;;;23.00;70.50;;;22.47;64.29;96259.31;4974591;28;19928;-82
2023/07/23 02:46:58;;;;;;;;;;;23.00;70.50;;;22.48;64.14;96260.94;4974698;28;20221;-82
2023/07/23 02:49:27;;;;;;;;;;;23.10;70.60;;;22.50;64.38;96266.97;4955294;28;19928;-82
2023/07/23 02:51:56;;;;;;;;;;;23.10;70.60;;;22.51;64.05;96265.81;4971750;28;19922;-82
2023/07/23 02:54:24;;;;;;;;;;;23.10;70.70;;;22.52;64.40;96271.03;4955260;28;19929;-81
2023/07/23 02:56:51;;;;;;;;;;;23.10;70.70;;;22.54;64.17;96270.69;4955434;28;19928;-82
2023/07/23 02:59:19;;;;;;;;;;;23.10;70.60;;;22.55;64.29;96275.09;4972544;28;19922;-82
2023/07/23 03:01:47;;;;;;;;;;;23.10;70.50;;;22.56;64.18;96275.94;4955590;28;20239;-82
2023/07/23 03:04:15;;;;;;;;;;;23.10;70.40;;;22.57;64.20;96267.22;4955082;28;19929;-82
2023/07/23 03:06:44;;;;;;;;;;;23.10;70.40;;;22.57;64.21;96272.00;4971084;28;19922;-82
2023/07/23 03:09:12;;;;;;;;;;;23.10;70.50;;;22.56;63.96;96271.16;4971289;28;19922;-83
2023/07/23 03:11:40;;;;;;;;;;;23.20;70.50;;;22.56;64.06;96282.31;4989639;28;19921;-83
2023/07/23 03:14:08;;;;;;;;;;;23.20;70.40;;;22.57;64.49;96286.75;4974398;28;20214;-84
2023/07/23 03:16:35;;;;;;;;;;;23.10;70.60;;;22.58;64.24;96288.38;4990469;28;19947;-84
2023/07/23 03:19:03;;;;;;;;;;;23.20;70.50;;;22.58;64.48;96277.22;4974391;28;19922;-84
2023/07/23 03:21:32;;;;;;;;;;;23.20;70.50;;;22.56;64.06;96273.94;4973525;28;19922;-84
2023/07/23 03:24:01;;;;;;;;;;;23.20;70.50;;;22.57;64.59;96283.94;4976404;28;19922;-84
2023/07/23 03:26:30;;;;;;;;;;;23.10;70.50;;;22.57;64.42;96297.91;4993789;28;19922;-85
2023/07/23 03:28:58;;;;;;;;;;;23.20;70.80;;;22.57;64.39;96309.06;4977430;28;19922;-85
2023/07/23 03:31:26;;;;;;;;;;;23.20;70.80;;;22.58;64.83;96313.47;4976933;28;19922;-85
2023/07/23 03:33:54;;;;;;;;;;;23.20;71.00;;;22.59;64.77;96317.91;4977299;28;19944;-85
2023/07/23 03:36:22;;;;;;;;;;;23.20;70.90;;;22.59;64.42;96329.06;4961343;28;19922;-85
2023/07/23 03:38:50;;;;;;;;;;;23.20;70.80;;;22.56;64.28;96310.22;4977445;28;20094;-84
2023/07/23 03:41:19;;;;;;;;;;;23.20;70.70;;;22.52;64.76;96303.72;4960683;28;19929;-85
2023/07/23 03:43:48;;;;;;;;;;;23.10;70.80;;;22.48;64.64;96303.56;4942130;28;19922;-85
2023/07/23 03:46:16;;;;;;;;;;;23.10;71.10;;;22.45;64.74;96315.44;4942135;28;19922;-84
2023/07/23 03:48:47;;;;;;;;;;;23.00;71.20;;;22.45;65.11;96311.84;4957653;28;19929;-84
2023/07/23 03:51:15;;;;;;;;;;;23.00;71.20;;;22.44;64.91;96322.19;4941415;28;19922;-84
2023/07/23 03:53:43;;;;;;;;;;;23.00;71.20;;;22.47;65.00;96324.25;4957790;28;19926;-84
2023/07/23 03:56:11;;;;;;;;;;;23.00;71.30;;;22.47;65.25;96324.25;4974840;28;20121;-84
2023/07/23 03:58:40;;;;;;;;;;;23.00;71.30;;;22.49;64.73;96318.34;4973662;28;19928;-84
2023/07/23 04:01:08;;;;;;;;;;;23.00;71.20;;;22.50;64.95;96320.00;4941234;28;19922;-84
2023/07/23 04:03:36;;;;;;;;;;;23.10;71.30;;;22.50;64.87;96317.19;4957472;28;19922;-84
2023/07/23 04:06:04;;;;;;;;;;;23.10;71.30;;;22.51;65.07;96318.84;4957741;28;19929;-84
2023/07/23 04:08:32;;;;;;;;;;;23.10;71.30;;;22.51;64.67;96327.19;4941531;28;19922;-85
2023/07/23 04:11:00;;;;;;;;;;;23.10;71.30;;;22.50;64.93;96323.59;4956982;28;19929;-84
2023/07/23 04:13:28;;;;;;;;;;;23.10;71.30;;;22.51;64.74;96314.06;4941500;28;19928;-85
2023/07/23 04:16:01;;;;;;;;;;;23.10;71.30;;;22.52;65.08;96326.03;4941580;28;19992;-84
2023/07/23 04:18:47;;;;;;;;;;;23.10;71.40;;;22.52;65.14;96314.88;4973625;28;20252;-84
2023/07/23 04:21:15;;;;;;;;;;;23.10;71.30;;;22.52;64.73;96323.25;4972917;28;19929;-84
2023/07/23 04:23:46;;;;;;;;;;;23.10;71.20;;;22.50;64.78;96315.22;4973339;28;20449;-84
2023/07/23 04:26:14;;;;;;;;;;;23.10;72.00;;;22.50;64.61;96314.41;4973544;28;19922;-84
2023/07/23 04:28:42;;;;;;;;;;;23.10;71.20;;;22.51;64.90;96313.25;4957428;28;19922;-84
2023/07/23 04:31:11;;;;;;;;;;;23.10;71.30;;;22.50;65.18;96318.00;4940824;28;20209;-84
2023/07/23 04:33:39;;;;;;;;;;;23.10;71.30;;;22.51;64.84;96327.19;4956831;28;19923;-85
2023/07/23 04:36:08;;;;;;;;;;;23.10;71.40;;;22.51;65.04;96338.34;4941275;28;20095;-84
2023/07/23 04:38:37;;;;;;;;;;;23.10;71.40;;;22.52;64.99;96342.78;4957023;28;19926;-84
2023/07/23 04:41:05;;;;;;;;;;;23.10;71.40;;;22.51;64.88;96335.56;4956600;28;19922;-84
2023/07/23 04:43:33;;;;;;;;;;;23.10;71.40;;;22.51;65.13;96341.94;4957040;28;19922;-84
2023/07/23 04:46:01;;;;;;;;;;;23.10;71.40;;;22.51;65.28;96336.38;4957115;28;20309;-84
2023/07/23 04:48:30;;;;;;;;;;;23.10;71.50;;;22.51;65.40;96349.53;4949414;28;19929;-84
2023/07/23 04:50:58;;;;;;;;;;;23.10;71.50;;;22.50;65.34;96351.47;4959587;28;19929;-84
2023/07/23 04:53:26;;;;;;;;;;;23.10;71.50;;;22.52;65.31;96362.31;4992329;28;19929;-84
2023/07/23 04:55:54;;;;;;;;;;;23.10;72.30;;;22.50;65.06;96357.06;4976119;28;19928;-84
2023/07/23 04:58:22;;;;;;;;;;;23.10;71.50;;;22.49;65.33;96363.00;4993395;28;20213;-84
2023/07/23 05:00:50;;;;;;;;;;;23.10;71.40;;;22.48;65.01;96364.16;4975438;28;19929;-84
2023/07/23 05:03:17;;;;;;;;;;;23.10;71.60;;;22.47;65.26;96370.88;4975940;28;19922;-84
2023/07/23 05:05:49;;;;;;;;;;;23.10;71.60;;;22.47;65.40;96373.69;4992397;28;19928;-84
2023/07/23 05:08:17;;;;;;;;;;;23.10;71.60;;;22.44;65.29;96368.78;4959877;28;19928;-84
2023/07/23 05:10:45;;;;;;;;;;;23.10;72.40;;;22.44;65.24;96380.75;4975520;28;19944;-84
2023/07/23 05:13:12;;;;;;;;;;;23.00;71.50;;;22.44;65.08;96380.75;4975638;28;19922;-84
2023/07/23 05:15:40;;;;;;;;;;;23.00;71.60;;;22.44;65.39;96391.09;4959955;28;19922;-84
2023/07/23 05:18:08;;;;;;;;;;;23.00;71.70;;;22.46;65.51;96388.78;4975649;28;19929;-84
2023/07/23 05:20:36;;;;;;;;;;;23.10;71.80;;;22.47;65.50;96384.84;4975224;28;19921;-84
2023/07/23 05:23:06;;;;;;;;;;;23.10;71.90;;;22.47;65.27;96390.41;4959723;28;19928;-85
2023/07/23 05:25:33;;;;;;;;;;;23.10;71.70;;;22.46;64.90;96394.34;4975580;28;19922;-84
2023/07/23 05:28:01;;;;;;;;;;;23.00;71.50;;;22.46;65.49;96411.09;4959443;28;19928;-84
2023/07/23 05:30:29;;;;;;;;;;;23.10;71.60;;;22.45;65.28;96412.25;4959149;28;19929;-84
2023/07/23 05:32:57;;;;;;;;;;;23.10;71.80;;;22.45;65.21;96415.03;4975592;28;19944;-84
2023/07/23 05:35:25;;;;;;;;;;;23.00;71.60;;;22.43;65.58;96411.78;4959253;28;20235;-84
2023/07/23 05:37:53;;;;;;;;;;;23.00;71.50;;;22.41;65.07;96414.91;5008026;28;19921;-84
2023/07/23 05:40:22;;;;;;;;;;;23.00;71.60;;;22.41;65.40;96425.22;4992196;28;19936;-84
2023/07/23 05:42:55;;;;;;;;;;;23.00;71.70;;;22.41;65.37;96420.50;4959637;28;19944;-84
2023/07/23 05:45:22;;;;;;;;;;;23.00;71.80;;;22.42;65.57;96426.88;4958699;28;19922;-84
2023/07/23 05:47:50;;;;;;;;;;;23.00;71.90;;;22.40;65.73;96423.59;4975524;28;19928;-84
2023/07/23 05:50:18;;;;;;;;;;;23.00;71.90;;;22.38;65.46;96435.91;4974688;28;20229;-84
2023/07/23 05:52:46;;;;;;;;;;;23.00;72.00;;;22.37;65.98;96425.94;4975278;28;19944;-84
2023/07/23 05:55:14;;;;;;;;;;;23.00;72.10;;;22.37;66.11;96420.34;4991526;28;19928;-84
2023/07/23 05:57:43;;;;;;;;;;;23.00;72.20;;;22.37;65.91;96425.94;4991573;28;20117;-84
2023/07/23 06:00:12;;;;;;;;;;;23.00;72.10;;;22.36;65.92;96424.28;4974565;28;19922;-84
2023/07/23 06:02:40;;;;;;;;;;;23.00;72.20;;;22.35;65.71;96422.66;4975612;28;20125;-84
2023/07/23 06:05:08;;;;;;;;;;;22.90;72.20;;;22.34;65.81;96426.59;4975277;28;19922;-84
2023/07/23 06:07:36;;;;;;;;;;;22.90;72.00;;;22.34;65.55;96425.75;4992376;28;19928;-84
2023/07/23 06:10:05;;;;;;;;;;;22.90;72.00;;;22.34;65.39;96426.59;4958365;28;19928;-84
2023/07/23 06:12:33;;;;;;;;;;;22.90;72.00;;;22.34;65.81;96429.38;4959223;28;19922;-84
2023/07/23 06:15:02;;;;;;;;;;;22.90;72.00;;;22.36;65.54;96434.63;4990964;28;19921;-84
2023/07/23 06:17:30;;;;;;;;;;;22.90;72.00;;;22.35;65.34;96432.97;4975370;28;19922;-84
2023/07/23 06:19:58;;;;;;;;;;;22.90;72.10;;;22.34;65.59;96443.34;4990666;28;20225;-84
2023/07/23 06:22:26;;;;;;;;;;;22.90;72.20;;;22.31;65.90;96435.66;4991195;28;20217;-84
2023/07/23 06:24:54;;;;;;;;;;;22.90;72.30;;;22.30;65.63;96436.78;4974740;28;19922;-84
2023/07/23 06:27:22;;;;;;;;;;;22.90;72.50;;;22.29;66.04;96434.38;4974898;28;20209;-84
2023/07/23 06:29:50;;;;;;;;;;;22.90;72.40;;;22.27;65.95;96433.88;4974051;28;19921;-83
2023/07/23 06:32:19;;;;;;;;;;;22.80;72.50;;;22.27;66.20;96436.66;4992117;28;19922;-84
2023/07/23 06:34:47;;;;;;;;;;;22.80;72.40;;;22.24;66.29;96440.97;4990599;28;19928;-84
2023/07/23 06:37:15;;;;;;;;;;;22.80;72.70;;;22.24;66.25;96440.97;4958700;28;20243;-84
2023/07/23 06:39:43;;;;;;;;;;;22.80;72.70;;;22.25;66.29;96450.97;4958224;28;19948;-84
2023/07/23 06:42:10;;;;;;;;;;;22.80;72.80;;;22.24;66.17;96443.75;4958635;28;19922;-84
2023/07/23 06:44:39;;;;;;;;;;;22.80;72.50;;;22.23;66.11;96442.13;4958572;28;19922;-84
2023/07/23 06:47:07;;;;;;;;;;;22.80;72.60;;;22.19;66.18;96453.16;4974723;28;19922;-84
2023/07/23 06:49:36;;;;;;;;;;;22.70;72.80;;;22.16;65.90;96453.00;4991793;28;19928;-84
2023/07/23 06:52:05;;;;;;;;;;;22.70;72.80;;;22.16;66.16;96459.41;4974383;28;20198;-84
2023/07/23 06:54:37;;;;;;;;;;;22.70;72.90;;;22.15;66.26;96457.75;4974551;28;19929;-84
2023/07/23 06:57:06;;;;;;;;;;;22.70;72.90;;;22.15;66.08;96456.94;4993083;28;19922;-84
2023/07/23 06:59:34;;;;;;;;;;;22.70;72.60;;;22.15;65.78;96454.13;4961769;28;19922;-84
2023/07/23 07:02:02;;;;;;;;;;;22.70;72.80;;;22.16;66.14;96453.00;4974186;28;19922;-84
2023/07/23 07:04:30;;;;;;;;;;;22.70;72.50;;;22.17;65.90;96458.25;4974520;28;20037;-84
2023/07/23 07:06:59;;;;;;;;;;;22.70;72.30;;;22.19;65.33;96458.72;4974561;28;19922;-84
2023/07/23 07:09:27;;;;;;;;;;;22.70;72.10;;;22.20;65.56;96451.16;4974565;28;19922;-84
2023/07/23 07:11:55;;;;;;;;;;;22.70;72.20;;;22.20;65.53;96448.38;4974072;28;19928;-84
2023/07/23 07:14:23;;;;;;;;;;;22.80;71.90;;;22.19;65.69;96453.16;4942297;28;19922;-84
2023/07/23 07:16:51;;;;;;;;;;;22.80;72.00;;;22.20;65.17;96449.19;4958590;28;19922;-84
2023/07/23 07:19:19;;;;;;;;;;;22.80;71.80;;;22.21;64.69;96450.00;4974495;28;20218;-84
2023/07/23 07:21:47;;;;;;;;;;;22.80;71.30;;;22.21;65.18;96447.22;4957858;28;19923;-84
2023/07/23 07:24:16;;;;;;;;;;;22.80;71.80;;;22.20;65.07;96449.19;4974331;28;19922;-84
2023/07/23 07:26:44;;;;;;;;;;;22.80;71.30;;;22.23;65.00;96447.69;4958281;28;19922;-84
2023/07/23 07:29:12;;;;;;;;;;;22.80;71.60;;;22.25;64.91;96448.19;4958155;28;19932;-84
2023/07/23 07:31:40;;;;;;;;;;;22.80;71.50;;;22.27;65.21;96454.22;4986132;28;19922;-84
2023/07/23 07:34:08;;;;;;;;;;;22.80;71.60;;;22.32;65.34;96456.81;4993541;28;20476;-84
2023/07/23 07:36:36;;;;;;;;;;;22.90;71.70;;;22.34;65.30;96453.66;4994039;28;20223;-84
2023/07/23 07:39:04;;;;;;;;;;;22.90;71.80;;;22.38;65.20;96452.66;4993726;28;19936;-84
2023/07/23 07:41:33;;;;;;;;;;;22.90;71.70;;;22.43;65.13;96450.81;4960835;28;19936;-84
2023/07/23 07:44:01;;;;;;;;;;;23.00;71.70;;;22.53;65.30;96458.78;4977172;28;19922;-84
2023/07/23 07:46:29;;;;;;;;;;;23.10;71.90;;;22.62;64.90;96453.13;4977107;28;19932;-84
2023/07/23 07:48:57;;;;;;;;;;;23.10;71.90;;;22.71;64.73;96456.66;4993388;28;20243;-84
2023/07/23 07:51:25;;;;;;;;;;;23.20;71.40;;;22.77;64.66;96460.03;4976586;28;20113;-84
2023/07/23 07:53:52;;;;;;;;;;;23.20;71.30;;;22.80;64.64;96457.38;4976990;28;19976;-83
2023/07/23 07:56:21;;;;;;;;;;;23.30;71.10;;;22.82;64.34;96470.97;4977033;28;19943;-84
2023/07/23 07:58:51;;;;;;;;;;;23.40;70.80;;;22.82;64.60;96466.22;4976955;28;19921;-84
2023/07/23 08:01:19;;;;;;;;;;;23.40;70.80;;;22.83;64.17;96455.84;4976315;28;19922;-84
2023/07/23 08:03:47;;;;;;;;;;;23.40;70.50;;;22.81;64.07;96460.97;4976908;28;19922;-84
2023/07/23 08:06:15;;;;;;;;;;;23.40;70.50;;;22.81;64.35;96460.97;4976872;28;20147;-84
2023/07/23 08:08:43;;;;;;;;;;;23.40;70.70;;;22.81;64.42;96460.97;4976357;28;20206;-83
2023/07/23 08:11:11;;;;;;;;;;;23.40;70.50;;;22.83;64.02;96456.69;4992562;28;20326;-83
2023/07/23 08:13:39;;;;;;;;;;;23.40;70.70;;;22.87;64.55;96459.59;4994148;28;19928;-83
2023/07/23 08:16:08;;;;;;;;;;;23.40;71.10;;;22.93;64.43;96457.41;4976612;28;19944;-83
2023/07/23 08:18:37;;;;;;;;;;;23.40;70.90;;;22.96;64.53;96459.50;4976795;28;19928;-84
2023/07/23 08:21:05;;;;;;;;;;;23.50;70.90;;;23.01;63.98;96450.09;4992386;28;19922;-83
2023/07/23 08:23:34;;;;;;;;;;;23.50;70.60;;;23.07;64.20;96457.91;4976449;28;19928;-83
2023/07/23 08:26:02;;;;;;;;;;;23.60;70.50;;;23.10;63.88;96456.38;4960574;28;19922;-83
2023/07/23 08:28:30;;;;;;;;;;;23.60;70.20;;;23.12;63.30;96465.25;4976576;28;19922;-83
2023/07/23 08:31:27;;;;;;;;;;;23.60;69.80;;;23.14;63.67;96454.53;4959774;28;19931;-83
2023/07/23 08:34:17;;;;;;;;;;;23.70;69.90;;;23.18;63.29;96457.44;4974337;28;19936;-83
2023/07/23 08:36:49;;;;;;;;;;;23.70;69.90;;;23.19;63.54;96454.31;5012425;23;19928;-85
2023/07/23 08:39:18;;;;;;;;;;;23.70;69.80;;;23.25;63.28;96463.28;4979640;28;20116;-85
2023/07/23 08:41:54;;;;;;;;;;;23.80;69.50;;;23.29;63.05;96464.25;4995128;28;19921;-85
2023/07/23 08:44:57;;;;;;;;;;;23.80;69.40;;;23.34;62.91;96466.81;5012176;28;19921;-85
2023/07/23 08:47:26;;;;;;;;;;;23.80;69.20;;;23.37;62.45;96454.13;4972998;28;19928;-86
2023/07/23 08:49:54;;;;;;;;;;;23.90;68.90;;;23.40;62.74;96464.59;4975667;28;20213;-85
2023/07/23 08:52:22;;;;;;;;;;;23.90;68.90;;;23.42;62.74;96462.28;4976346;28;19921;-86
2023/07/23 08:54:50;;;;;;;;;;;23.90;68.80;;;23.40;62.92;96464.59;4976153;28;19922;-85
2023/07/23 08:57:18;;;;;;;;;;;23.90;68.80;;;23.41;62.76;96463.44;4976175;28;19922;-86
2023/07/23 08:59:46;;;;;;;;;;;24.00;68.80;;;23.38;62.95;96469.72;4975648;28;19928;-86
2023/07/23 09:02:14;;;;;;;;;;;23.90;68.80;;;23.36;62.80;96469.25;4992395;28;20227;-85
2023/07/23 09:04:43;;;;;;;;;;;23.90;68.90;;;23.33;62.68;96458.75;4992298;28;19932;-86
2023/07/23 09:07:11;;;;;;;;;;;23.90;69.00;;;23.35;62.70;96464.81;4992130;28;19932;-85
2023/07/23 09:09:39;;;;;;;;;;;23.90;69.00;;;23.33;62.95;96465.19;4959889;28;19936;-86
2023/07/23 09:12:10;;;;;;;;;;;23.90;69.10;;;23.36;63.03;96464.50;4975998;28;19951;-86
2023/07/23 09:14:41;;;;;;;;;;;23.90;69.20;;;23.38;63.15;96466.94;4976077;28;19921;-86
2023/07/23 09:17:16;;;;;;;;;;;23.90;69.10;;;23.40;62.81;96471.00;4975961;28;19922;-86
2023/07/23 09:19:45;;;;;;;;;;;23.90;69.10;;;23.43;62.67;96466.72;4991044;28;20098;-88
2023/07/23 09:22:13;;;;;;;;;;;24.00;69.00;;;23.44;63.05;96469.16;4975186;28;20097;-88
2023/07/23 09:24:41;;;;;;;;;;;24.00;69.00;;;23.46;62.99;96479.97;4991980;28;20143;-87
2023/07/23 09:27:10;;;;;;;;;;;24.00;69.00;;;23.48;62.85;96477.66;4991679;28;19921;-88
2023/07/23 09:29:39;;;;;;;;;;;24.00;68.90;;;23.46;62.82;96474.38;4975640;28;20001;-88
2023/07/23 09:32:22;;;;;;;;;;;24.00;68.70;;;23.50;62.72;96475.31;4959523;28;19921;-87
2023/07/23 09:34:51;;;;;;;;;;;24.00;68.70;;;23.51;62.35;96482.53;4975773;28;19922;-88
2023/07/23 09:37:19;;;;;;;;;;;24.00;68.50;;;23.54;62.67;96483.81;4959474;28;19922;-88
2023/07/23 09:39:47;;;;;;;;;;;24.10;68.80;;;23.55;62.46;96477.06;4975144;28;19922;-88
2023/07/23 09:42:15;;;;;;;;;;;24.10;68.70;;;23.56;62.82;96471.13;4975569;28;19921;-87
2023/07/23 09:44:42;;;;;;;;;;;24.10;68.70;;;23.55;62.60;96477.91;4991699;28;19926;-89
2023/07/23 09:47:10;;;;;;;;;;;24.10;68.60;;;23.57;62.72;96481.13;4959423;28;19929;-88
2023/07/23 09:49:38;;;;;;;;;;;24.10;68.70;;;23.57;62.09;96469.16;4991402;28;19922;-89
2023/07/23 09:52:09;;;;;;;;;;;24.10;68.20;;;23.55;61.79;96477.06;4975182;28;19922;-88
2023/07/23 09:54:37;;;;;;;;;;;24.10;67.80;;;23.53;62.49;96477.44;4975702;28;19953;-87
2023/07/23 09:57:06;;;;;;;;;;;24.10;68.40;;;23.50;62.33;96469.72;4992422;28;19928;-88
2023/07/23 09:59:34;;;;;;;;;;;24.10;68.50;;;23.51;62.37;96476.94;4975474;28;20230;-88
2023/07/23 10:02:02;;;;;;;;;;;24.10;68.50;;;23.51;62.74;96470.53;4974901;28;19922;-88
2023/07/23 10:04:31;;;;;;;;;;;24.00;68.50;;;23.49;62.81;96468.09;4959370;28;19928;-88
2023/07/23 10:06:58;;;;;;;;;;;24.00;68.60;;;23.47;62.40;96469.63;4975112;28;19922;-88
2023/07/23 10:09:28;;;;;;;;;;;24.00;68.50;;;23.47;62.31;96469.63;4991159;28;19936;-88
2023/07/23 10:11:56;;;;;;;;;;;24.00;68.50;;;23.47;62.45;96467.63;5007138;28;19928;-88
2023/07/23 10:14:23;;;;;;;;;;;24.00;68.60;;;23.47;62.72;96464.03;4975147;28;19928;-89
2023/07/23 10:16:51;;;;;;;;;;;24.00;68.70;;;23.44;62.81;96468.31;4958955;28;20006;-87
2023/07/23 10:19:20;;;;;;;;;;;24.00;68.70;;;23.44;62.46;96469.16;4959368;28;19922;-88
2023/07/23 10:21:49;;;;;;;;;;;24.00;68.70;;;23.44;62.42;96468.31;4974750;28;19928;-88
2023/07/23 10:24:17;;;;;;;;;;;24.00;68.60;;;23.44;62.70;96476.69;4991135;28;19922;-88
2023/07/23 10:26:47;;;;;;;;;;;24.00;68.80;;;23.43;62.48;96469.50;4958865;28;19922;-88
2023/07/23 10:29:18;;;;;;;;;;;24.00;68.70;;;23.42;62.96;96457.50;4991016;28;19922;-88
2023/07/23 10:31:46;;;;;;;;;;;24.00;68.70;;;23.45;62.76;96467.16;4974016;28;19922;-88
2023/07/23 10:34:42;;;;;;;;;;;24.00;68.70;;;23.46;62.82;96463.19;4974791;28;19928;-88
2023/07/23 10:37:11;;;;;;;;;;;24.00;68.70;;;23.47;62.50;96459.25;4958547;28;19922;-88
2023/07/23 10:40:22;;;;;;;;;;;24.00;68.70;;;23.47;62.93;96456.44;4974446;28;19922;-88
2023/07/23 10:43:23;;;;;;;;;;;24.00;68.80;;;23.48;62.53;96460.88;4972744;28;19929;-87
2023/07/23 10:46:01;;;;;;;;;;;24.00;68.70;;;23.46;62.66;96463.19;4974668;28;19929;-87
2023/07/23 10:48:41;;;;;;;;;;;24.00;68.80;;;23.44;62.66;96460.75;4990976;28;19922;-87
2023/07/23 10:51:09;;;;;;;;;;;24.00;68.90;;;23.43;62.77;96463.91;4990274;28;20221;-87
2023/07/23 10:53:41;;;;;;;;;;;24.00;68.90;;;23.40;62.98;96465.41;4974722;28;19928;-88
2023/07/23 10:56:23;;;;;;;;;;;24.00;69.00;;;23.41;62.76;96460.66;4958457;28;19922;-88
2023/07/23 10:58:55;;;;;;;;;;;24.00;68.90;;;23.41;62.80;96467.03;4974350;28;20120;-87
2023/07/23 11:01:23;;;;;;;;;;;23.90;68.80;;;23.42;62.77;96462.28;4990101;28;19922;-88
2023/07/23 11:03:53;;;;;;;;;;;24.00;68.90;;;23.43;62.71;96458.34;4974326;28;19922;-87
2023/07/23 11:06:28;;;;;;;;;;;24.00;68.90;;;23.43;62.90;96447.97;4974440;28;19922;-86
2023/07/23 11:08:57;;;;;;;;;;;24.00;68.70;;;23.44;63.05;96451.56;4974196;28;19922;-87
2023/07/23 11:11:29;;;;;;;;;;;24.00;68.80;;;23.46;62.79;96446.44;4958114;28;19921;-87
2023/07/23 11:13:58;;;;;;;;;;;24.00;68.70;;;23.44;62.70;96445.97;4974343;28;19928;-87
2023/07/23 11:16:26;;;;;;;;;;;24.00;68.70;;;23.47;62.94;96447.28;4974103;28;20209;-86
2023/07/23 11:18:54;;;;;;;;;;;24.00;68.80;;;23.47;62.87;96442.47;4991468;28;19928;-85
2023/07/23 11:21:27;;;;;;;;;;;24.00;68.70;;;23.48;62.50;96440.53;4973729;28;19922;-86
2023/07/23 11:23:55;;;;;;;;;;;24.00;68.60;;;23.48;62.61;96444.13;4958038;28;19922;-86
2023/07/23 11:26:23;;;;;;;;;;;24.00;68.70;;;23.48;62.41;96435.72;4958164;28;20113;-86